Time;durP1;ratioP1;P1;durP2;ratioP2;P2;SDS_P1;SDS_P2;PMS_P1;PMS_P2;Temp;Humidity;BMP_temperature;BMP_pressure;BME280_temperature;BME280_humidity;BME280_pressure;Samples;Min_cycle;Max_cycle;Signal;HPM_P1;HPM_P2
2023/08/01 03:58:21;;;;;;;5.65;2.55;;;;;;;15.94;100.00;99716.41;6100995;27;20441;-85
2023/08/01 04:01:24;;;;;;;5.72;2.65;;;;;;;16.04;100.00;99719.41;5396584;32;33518;-85
2023/08/01 04:04:28;;;;;;;4.85;3.03;;;;;;;16.14;100.00;99716.94;5398060;33;33213;-85
2023/08/01 04:07:30;;;;;;;9.93;3.40;;;;;;;16.21;100.00;99715.00;5384021;33;33367;-85
2023/08/01 04:10:33;;;;;;;6.60;3.22;;;;;;;16.37;100.00;99718.09;5382975;33;33481;-85
2023/08/01 04:13:36;;;;;;;5.57;3.20;;;;;;;16.48;100.00;99718.13;5394670;33;35062;-84
2023/08/01 04:16:39;;;;;;;7.78;3.22;;;;;;;16.69;100.00;99715.94;5394798;33;33775;-85
2023/08/01 04:19:42;;;;;;;5.57;3.15;;;;;;;16.77;100.00;99715.62;5395702;33;33780;-85
2023/08/01 04:22:45;;;;;;;7.12;3.50;;;;;;;16.89;100.00;99711.00;5395293;33;33801;-85
2023/08/01 04:25:48;;;;;;;7.47;3.55;;;;;;;17.08;100.00;99711.75;5395379;33;34510;-85
2023/08/01 04:28:51;;;;;;;6.25;3.30;;;;;;;17.23;100.00;99709.34;5382614;33;34668;-84
2023/08/01 04:31:54;;;;;;;5.85;3.35;;;;;;;17.35;100.00;99703.91;5394643;32;34662;-85
2023/08/01 04:34:56;;;;;;;6.20;3.22;;;;;;;17.33;100.00;99703.31;5394056;32;33425;-85
2023/08/01 04:37:59;;;;;;;11.68;3.30;;;;;;;17.39;100.00;99706.97;5382006;33;33496;-85
2023/08/01 04:41:02;;;;;;;5.57;3.50;;;;;;;17.44;100.00;99707.09;5382073;33;35022;-85
2023/08/01 04:44:06;;;;;;;7.78;2.97;;;;;;;17.44;100.00;99713.34;5396877;32;33322;-85
2023/08/01 04:47:09;;;;;;;6.00;3.30;;;;;;;17.56;100.00;99701.63;5396907;32;34538;-85
2023/08/01 04:50:12;;;;;;;8.20;3.60;;;;;;;17.62;100.00;99700.66;5396801;32;33567;-85
2023/08/01 04:53:14;;;;;;;7.47;3.15;;;;;;;17.70;100.00;99703.00;5384464;33;33906;-85
2023/08/01 04:56:17;;;;;;;8.00;3.75;;;;;;;17.82;100.00;99701.09;5396543;32;33902;-85
2023/08/01 04:59:20;;;;;;;7.05;3.45;;;;;;;17.99;100.00;99706.59;5397944;32;34661;-85
2023/08/01 05:02:23;;;;;;;8.52;3.08;;;;;;;18.08;100.00;99693.44;5396707;32;33869;-85
2023/08/01 05:05:26;;;;;;;6.50;3.17;;;;;;;18.24;100.00;99697.25;5384833;33;33560;-85
2023/08/01 05:08:29;;;;;;;6.55;3.37;;;;;;;18.40;100.00;99690.16;5384906;33;35425;-84
2023/08/01 05:11:32;;;;;;;6.37;3.60;;;;;;;18.43;99.79;99689.66;5396691;32;34589;-85
2023/08/01 05:14:35;;;;;;;5.97;3.05;;;;;;;18.46;99.71;99694.66;5398171;33;34266;-85
2023/08/01 05:17:38;;;;;;;4.60;3.15;;;;;;;18.43;100.00;99693.25;5384791;33;33869;-85
2023/08/01 05:20:41;;;;;;;6.32;3.42;;;;;;;18.43;100.00;99695.13;5399352;32;33882;-84
2023/08/01 05:23:44;;;;;;;5.72;3.50;;;;;;;18.43;100.00;99686.94;5398098;32;33626;-85
2023/08/01 05:26:47;;;;;;;7.10;3.45;;;;;;;18.55;100.00;99688.53;5398460;33;34325;-84
2023/08/01 05:29:50;;;;;;;4.65;2.95;;;;;;;18.78;98.48;99679.41;5399112;33;33929;-84
2023/08/01 05:32:54;;;;;;;7.37;3.37;;;;;;;18.88;97.88;99692.34;5396905;33;33881;-85
2023/08/01 05:35:57;;;;;;;7.87;3.20;;;;;;;19.04;97.23;99693.41;5384720;33;33882;-85
2023/08/01 05:38:59;;;;;;;8.15;3.50;;;;;;;19.14;96.84;99687.28;5384445;33;34824;-85
2023/08/01 05:42:06;;;;;;;6.20;3.47;;;;;;;19.30;96.43;99682.84;5384320;33;33480;-85
2023/08/01 05:45:11;;;;;;;6.95;3.75;;;;;;;19.46;95.56;99687.47;5396310;33;33849;-84
2023/08/01 05:48:14;;;;;;;7.03;3.47;;;;;;;19.66;93.92;99686.94;5396374;32;34033;-89
2023/08/01 05:51:16;;;;;;;7.18;3.10;;;;;;;19.92;93.81;99688.87;5395905;33;33815;-88
2023/08/01 05:54:20;;;;;;;6.93;3.50;;;;;;;20.17;91.18;99688.28;5372366;33;35024;-88
2023/08/01 05:57:23;;;;;;;6.82;3.45;;;;;;;20.33;89.46;99683.81;5397982;33;33498;-89
2023/08/01 06:00:26;;;;;;;9.90;3.92;;;;;;;20.46;89.37;99690.75;5396405;32;33508;-85
2023/08/01 06:03:29;;;;;;;11.57;4.12;;;;;;;20.66;87.54;99684.69;5397431;32;33920;-85
2023/08/01 06:06:32;;;;;;;9.55;4.68;;;;;;;20.89;85.90;99683.47;5396979;32;33894;-85
2023/08/01 06:09:35;;;;;;;7.62;4.20;;;;;;;21.00;85.94;99676.16;5397208;32;33789;-85
2023/08/01 06:12:38;;;;;;;7.78;4.18;;;;;;;21.21;85.12;99680.69;5396415;33;34427;-85
2023/08/01 06:15:41;;;;;;;10.30;4.32;;;;;;;21.41;82.62;99685.47;5394589;33;33498;-85
2023/08/01 06:18:43;;;;;;;7.47;4.00;;;;;;;21.45;81.80;99681.09;5395827;32;34277;-85
2023/08/01 06:21:46;;;;;;;13.00;4.80;;;;;;;21.58;82.01;99682.53;5383925;33;33767;-85
2023/08/01 06:24:49;;;;;;;10.48;4.35;;;;;;;21.68;80.98;99679.84;5397437;32;34531;-85
2023/08/01 06:27:52;;;;;;;9.77;4.07;;;;;;;21.90;78.61;99682.34;5396027;33;34093;-85
2023/08/01 06:30:55;;;;;;;8.32;3.92;;;;;;;21.93;78.59;99679.06;5396101;32;34176;-85
2023/08/01 06:34:01;;;;;;;14.38;3.97;;;;;;;22.08;77.61;99678.28;5384254;33;34609;-85
2023/08/01 06:37:03;;;;;;;7.47;3.70;;;;;;;22.18;77.16;99674.78;5395925;32;34985;-85
2023/08/01 06:40:08;;;;;;;8.60;3.67;;;;;;;22.36;75.73;99674.25;5395693;33;33505;-85
2023/08/01 06:43:11;;;;;;;5.80;3.70;;;;;;;22.47;74.65;99674.28;5384136;33;33583;-85
2023/08/01 06:46:13;;;;;;;5.70;3.12;;;;;;;22.62;74.54;99674.28;5396190;32;34561;-85
2023/08/01 06:49:16;;;;;;;5.03;2.80;;;;;;;22.72;73.95;99668.78;5383898;33;34130;-85
2023/08/01 06:52:19;;;;;;;5.45;2.47;;;;;;;22.81;72.75;99661.62;5383746;33;34989;-84
2023/08/01 06:55:22;;;;;;;8.23;3.42;;;;;;;22.83;72.00;99651.19;5395537;33;35456;-84
2023/08/01 06:58:26;;;;;;;6.22;2.92;;;;;;;22.95;71.68;99661.91;5395632;33;34165;-84
2023/08/01 07:01:30;;;;;;;4.68;2.45;;;;;;;23.08;70.20;99657.78;5396411;33;33762;-84
2023/08/01 07:04:34;;;;;;;6.90;2.78;;;;;;;23.18;69.67;99649.50;5396508;33;33894;-85
2023/08/01 07:07:37;;;;;;;4.05;2.75;;;;;;;23.27;69.80;99660.75;5397897;33;34524;-85
2023/08/01 07:10:40;;;;;;;5.20;2.65;;;;;;;23.32;69.31;99658.00;5385502;33;33884;-84
2023/08/01 07:13:42;;;;;;;5.57;2.50;;;;;;;23.40;69.43;99646.44;5383844;33;34019;-84
2023/08/01 07:16:45;;;;;;;3.62;2.25;;;;;;;23.56;68.54;99647.19;5396988;33;34288;-85
2023/08/01 07:19:48;;;;;;;5.25;2.58;;;;;;;23.54;69.25;99643.87;5384865;33;34673;-84
2023/08/01 07:22:51;;;;;;;7.00;2.55;;;;;;;23.59;68.32;99649.34;5383588;33;33954;-84
2023/08/01 07:25:54;;;;;;;4.53;2.30;;;;;;;23.64;68.61;99640.28;5395648;33;33490;-84
2023/08/01 07:28:57;;;;;;;4.37;2.50;;;;;;;23.99;67.16;99640.09;5395717;32;33526;-84
2023/08/01 07:32:00;;;;;;;4.00;2.58;;;;;;;24.05;66.63;99635.41;5397206;32;34755;-84
2023/08/01 07:35:04;;;;;;;4.70;2.17;;;;;;;24.20;66.56;99635.28;5395086;32;33488;-84
2023/08/01 07:38:07;;;;;;;3.12;2.45;;;;;;;24.55;65.05;99640.81;5391483;32;34790;-84
2023/08/01 07:41:10;;;;;;;9.20;2.45;;;;;;;24.82;63.69;99634.78;5392629;33;35289;-84
2023/08/01 07:44:12;;;;;;;2.80;2.20;;;;;;;24.87;63.33;99624.53;5402727;33;35071;-85
2023/08/01 07:47:15;;;;;;;4.35;2.35;;;;;;;24.84;63.84;99621.56;5405203;32;32929;-85
2023/08/01 07:50:20;;;;;;;3.35;2.50;;;;;;;24.91;65.11;99616.53;5396930;33;33597;-85
2023/08/01 07:53:24;;;;;;;5.30;2.22;;;;;;;25.21;61.96;99620.87;5396646;32;33849;-84
2023/08/01 07:56:26;;;;;;;2.45;1.95;;;;;;;25.40;61.37;99612.69;5382624;33;33552;-85
2023/08/01 07:59:29;;;;;;;3.75;2.00;;;;;;;25.51;59.77;99610.63;5396018;33;33726;-85
2023/08/01 08:02:32;;;;;;;3.50;2.03;;;;;;;25.48;58.88;99597.44;5398086;33;33914;-84
2023/08/01 08:05:39;;;;;;;6.35;2.55;;;;;;;25.53;59.25;99600.09;5383816;33;33493;-85
2023/08/01 08:08:41;;;;;;;2.35;2.00;;;;;;;25.64;59.74;99596.09;5395021;33;33900;-88
2023/08/01 08:11:45;;;;;;;4.72;2.05;;;;;;;25.81;58.75;99590.06;5395202;33;34519;-89
2023/08/01 08:14:48;;;;;;;5.78;2.17;;;;;;;25.81;59.58;99590.06;5396055;32;34249;-89
2023/08/01 08:17:51;;;;;;;3.37;2.00;;;;;;;26.12;58.54;99604.25;5397533;32;33781;-89
2023/08/01 08:20:53;;;;;;;3.03;1.85;;;;;;;26.20;56.14;99595.28;5387920;33;33856;-86
2023/08/01 08:23:57;;;;;;;3.78;2.10;;;;;;;26.19;56.98;99585.38;5399629;32;34976;-85
2023/08/01 08:26:59;;;;;;;4.22;2.00;;;;;;;26.19;56.65;99590.06;5397235;32;34536;-85
2023/08/01 08:30:03;;;;;;;8.40;2.20;;;;;;;26.15;56.02;99589.84;5385023;33;33326;-85
2023/08/01 08:33:06;;;;;;;3.90;2.12;;;;;;;26.13;55.89;99586.56;5397376;33;34351;-85
2023/08/01 08:36:11;;;;;;;2.75;1.90;;;;;;;26.23;57.05;99588.34;5384984;32;34273;-85
2023/08/01 08:39:14;;;;;;;3.35;1.95;;;;;;;26.50;55.15;99582.13;5372784;33;32533;-85
2023/08/01 08:42:20;;;;;;;3.47;1.90;;;;;;;26.57;53.66;99571.50;5376503;33;34086;-85
2023/08/01 08:45:23;;;;;;;2.85;2.10;;;;;;;26.43;55.04;99579.72;5381984;33;33550;-85
2023/08/01 08:48:28;;;;;;;2.65;1.90;;;;;;;26.70;55.38;99572.63;5379507;33;34018;-85
2023/08/01 08:51:31;;;;;;;1.60;1.50;;;;;;;26.89;52.79;99569.81;5379291;33;33869;-85
2023/08/01 08:54:35;;;;;;;2.60;1.98;;;;;;;26.92;52.20;99570.00;5390762;33;33949;-85
2023/08/01 08:57:39;;;;;;;5.32;2.08;;;;;;;27.10;52.46;99570.22;5391575;32;35509;-85
2023/08/01 09:00:44;;;;;;;3.53;2.00;;;;;;;27.28;50.95;99565.72;5396224;32;33708;-85
2023/08/01 09:03:47;;;;;;;4.35;2.03;;;;;;;26.95;52.56;99565.81;5396415;33;33854;-85
2023/08/01 09:06:54;;;;;;;4.78;1.98;;;;;;;26.78;53.71;99563.66;5384423;33;33378;-85
2023/08/01 09:09:57;;;;;;;6.30;2.12;;;;;;;26.81;50.98;99559.47;5396923;32;33801;-85
2023/08/01 09:13:01;;;;;;;2.53;1.90;;;;;;;26.99;51.66;99552.19;5384246;33;33871;-85
2023/08/01 09:16:06;;;;;;;3.17;1.75;;;;;;;27.30;50.44;99544.94;5384895;33;34425;-85
2023/08/01 09:19:09;;;;;;;2.10;1.90;;;;;;;27.40;49.43;99543.09;5400286;33;33524;-85
2023/08/01 09:22:14;;;;;;;4.60;1.87;;;;;;;27.58;48.31;99526.34;5406798;33;34835;-85
2023/08/01 09:25:17;;;;;;;2.00;1.80;;;;;;;27.70;48.39;99527.72;5397525;33;34439;-85
2023/08/01 09:28:21;;;;;;;1.80;1.60;;;;;;;27.67;47.66;99518.13;5396200;33;34126;-85
2023/08/01 09:31:33;;;;;;;2.37;1.87;;;;;;;27.27;47.82;99519.88;5397777;33;33760;-85
2023/08/01 09:34:36;;;;;;;2.15;1.55;;;;;;;27.54;47.09;99514.28;5397948;33;33572;-85
2023/08/01 09:37:43;;;;;;;7.35;2.33;;;;;;;27.73;45.47;99502.22;5384068;33;34812;-85
2023/08/01 09:40:47;;;;;;;3.35;2.10;;;;;;;28.24;45.23;99496.25;5386706;33;34986;-85
2023/08/01 09:43:50;;;;;;;3.20;1.50;;;;;;;28.49;44.74;99499.53;5393470;33;33516;-85
2023/08/01 09:47:00;;;;;;;2.53;1.77;;;;;;;28.35;44.42;99487.69;5397604;32;33773;-85
2023/08/01 09:50:04;;;;;;;4.03;1.70;;;;;;;28.20;44.49;99486.16;5394126;33;33516;-85
2023/08/01 09:53:07;;;;;;;4.60;1.62;;;;;;;28.47;44.41;99499.00;5394191;33;34655;-85
2023/08/01 09:56:11;;;;;;;2.20;1.70;;;;;;;27.97;44.43;99494.47;5388035;33;34020;-85
2023/08/01 09:59:18;;;;;;;5.03;1.62;;;;;;;28.13;45.23;99489.34;5388035;32;34233;-85
2023/08/01 10:02:24;;;;;;;2.37;1.70;;;;;;;28.70;45.17;99486.72;5396889;33;33481;-90
2023/08/01 10:05:31;;;;;;;4.80;1.60;;;;;;;29.07;41.28;99475.44;5396713;33;34752;-89
2023/08/01 10:08:35;;;;;;;3.08;1.67;;;;;;;29.69;41.26;99480.75;5390260;32;33986;-86
2023/08/01 10:11:39;;;;;;;2.62;1.65;;;;;;;29.55;40.91;99480.88;5388258;33;33750;-85
2023/08/01 10:14:42;;;;;;;3.33;1.80;;;;;;;29.29;41.22;99464.22;5392922;33;33860;-85
2023/08/01 10:17:45;;;;;;;2.75;1.45;;;;;;;28.94;41.51;99466.91;5395386;32;34044;-85
2023/08/01 10:20:49;;;;;;;4.72;1.83;;;;;;;28.47;41.68;99449.97;5383232;33;33979;-85
2023/08/01 10:23:53;;;;;;;2.95;1.70;;;;;;;28.35;43.33;99465.53;5395480;32;34770;-85
2023/08/01 10:26:56;;;;;;;3.58;1.92;;;;;;;28.60;40.34;99450.19;5383725;33;33873;-85
2023/08/01 10:30:02;;;;;;;2.97;1.70;;;;;;;29.03;41.50;99446.75;5395513;33;34572;-85
2023/08/01 10:33:05;;;;;;;2.08;1.73;;;;;;;29.30;41.19;99429.81;5395379;33;34235;-85
2023/08/01 10:36:18;;;;;;;3.85;1.60;;;;;;;29.36;40.94;99438.78;5395935;33;33407;-85
2023/08/01 10:39:22;;;;;;;1.55;1.45;;;;;;;29.55;39.24;99436.50;5388820;33;34666;-85
2023/08/01 10:42:37;;;;;;;1.45;1.35;;;;;;;29.50;39.43;99424.75;5378691;33;33721;-85
2023/08/01 10:45:39;;;;;;;5.47;1.90;;;;;;;29.86;38.88;99427.16;5377489;33;34608;-85
2023/08/01 10:48:52;;;;;;;1.92;1.60;;;;;;;30.36;38.24;99420.19;5378382;33;33483;-85
2023/08/01 10:51:56;;;;;;;2.53;1.55;;;;;;;30.90;35.68;99406.53;5395691;32;34696;-85
2023/08/01 10:55:01;;;;;;;1.52;1.42;;;;;;;31.16;35.60;99411.91;5384258;32;33222;-85
2023/08/01 10:58:05;;;;;;;1.60;1.42;;;;;;;31.53;33.93;99406.50;5374013;33;32265;-85
2023/08/01 11:01:08;;;;;;;2.08;1.58;;;;;;;30.90;35.49;99403.75;5374571;33;34526;-85
2023/08/01 11:04:15;;;;;;;3.80;1.70;;;;;;;31.01;35.08;99401.38;5395254;33;34608;-85
2023/08/01 11:07:18;;;;;;;5.18;1.70;;;;;;;30.93;34.75;99398.31;5395595;33;33797;-85
2023/08/01 11:10:22;;;;;;;3.30;1.60;;;;;;;30.80;36.58;99391.06;5395481;33;33627;-85
2023/08/01 11:13:25;;;;;;;3.05;1.50;;;;;;;30.72;34.86;99380.78;5395473;33;33930;-85
2023/08/01 11:16:28;;;;;;;1.77;1.62;;;;;;;30.78;35.83;99375.84;5383987;33;33951;-85
2023/08/01 11:19:31;;;;;;;1.40;1.20;;;;;;;31.31;34.05;99369.56;5399807;33;33938;-85
2023/08/01 11:22:34;;;;;;;1.45;1.35;;;;;;;31.79;31.53;99365.31;5389029;33;34366;-84
2023/08/01 11:25:40;;;;;;;1.80;1.30;;;;;;;31.75;31.61;99366.38;5395316;33;34465;-84
2023/08/01 11:28:42;;;;;;;3.50;1.33;;;;;;;31.54;34.12;99367.25;5395236;33;33815;-85
2023/08/01 11:31:56;;;;;;;5.12;1.95;;;;;;;31.75;32.30;99364.38;5385052;33;33827;-85
2023/08/01 11:34:59;;;;;;;3.60;1.60;;;;;;;31.97;32.16;99359.59;5398590;33;34037;-88
2023/08/01 11:38:02;;;;;;;3.22;1.27;;;;;;;32.14;31.87;99344.63;5396273;32;34205;-89
2023/08/01 11:41:05;;;;;;;3.20;1.40;;;;;;;32.21;31.16;99348.47;5395025;33;33603;-89
2023/08/01 11:44:10;;;;;;;2.42;1.42;;;;;;;32.23;31.60;99346.13;5395561;32;33874;-86
2023/08/01 11:47:18;;;;;;;1.48;1.37;;;;;;;31.96;31.81;99330.13;5395332;33;34028;-85
2023/08/01 11:50:25;;;;;;;3.03;1.33;;;;;;;32.08;31.58;99328.16;5382793;33;33916;-85
2023/08/01 11:53:29;;;;;;;1.73;1.37;;;;;;;32.19;31.15;99325.72;5385200;33;34570;-85
2023/08/01 11:56:33;;;;;;;2.25;1.42;;;;;;;32.54;30.29;99325.25;5397285;33;34024;-86
2023/08/01 11:59:50;;;;;;;2.30;1.23;;;;;;;32.79;30.48;99323.25;5384868;33;33889;-85
2023/08/01 12:03:07;;;;;;;2.37;1.15;;;;;;;32.10;30.90;99319.47;5398352;32;34264;-85
2023/08/01 12:06:11;;;;;;;2.65;1.27;;;;;;;32.30;30.40;99312.97;5405531;32;33967;-85
2023/08/01 12:09:14;;;;;;;2.60;1.33;;;;;;;32.18;30.82;99304.62;5396697;33;35382;-85
2023/08/01 12:12:18;;;;;;;1.65;1.55;;;;;;;32.06;31.69;99290.69;5397951;33;35055;-85
2023/08/01 12:15:20;;;;;;;1.80;1.35;;;;;;;32.71;30.05;99282.38;5378864;33;35147;-85
2023/08/01 12:18:28;;;;;;;2.62;1.55;;;;;;;32.24;31.19;99269.00;5373727;33;33839;-85
2023/08/01 12:21:34;;;;;;;1.58;1.48;;;;;;;31.88;32.57;99273.34;5396923;32;33879;-85
2023/08/01 12:24:37;;;;;;;2.10;1.87;;;;;;;31.62;33.04;99263.38;5396909;32;34041;-85
2023/08/01 12:27:40;;;;;;;2.47;1.40;;;;;;;31.35;32.56;99264.81;5385281;33;33477;-85
2023/08/01 12:30:44;;;;;;;3.30;1.60;;;;;;;31.38;32.61;99250.22;5384523;33;34004;-85
2023/08/01 12:33:47;;;;;;;1.65;1.42;;;;;;;31.52;32.26;99251.88;5396886;32;33700;-85
2023/08/01 12:36:50;;;;;;;1.42;1.33;;;;;;;31.26;33.76;99254.91;5396779;33;33880;-85
2023/08/01 12:39:53;;;;;;;2.33;1.50;;;;;;;30.98;32.78;99252.75;5384584;33;33342;-85
2023/08/01 12:42:56;;;;;;;1.77;1.50;;;;;;;30.94;33.90;99243.47;5397946;32;33789;-85
2023/08/01 12:46:02;;;;;;;4.12;1.37;;;;;;;31.30;33.08;99226.09;5384877;33;33383;-85
2023/08/01 12:49:04;;;;;;;4.87;1.37;;;;;;;31.79;32.64;99231.72;5399809;33;33699;-85
2023/08/01 12:52:07;;;;;;;1.90;1.42;;;;;;;32.16;31.34;99231.72;5398733;33;33843;-85
2023/08/01 12:55:12;;;;;;;4.20;1.40;;;;;;;32.25;32.37;99237.19;5385825;33;33913;-85
2023/08/01 12:58:16;;;;;;;2.78;1.62;;;;;;;31.83;31.82;99224.31;5396095;33;33479;-85
2023/08/01 13:01:19;;;;;;;1.52;1.42;;;;;;;31.39;32.39;99226.84;5396139;33;33849;-85
2023/08/01 13:04:22;;;;;;;3.10;1.40;;;;;;;31.19;32.86;99222.13;5397392;33;33852;-85
2023/08/01 13:07:25;;;;;;;1.67;1.52;;;;;;;31.15;32.60;99216.44;5397166;33;33807;-85
2023/08/01 13:10:36;;;;;;;2.30;1.27;;;;;;;31.24;32.56;99202.44;5397430;33;33759;-84
2023/08/01 13:13:40;;;;;;;6.60;1.75;;;;;;;31.34;34.14;99204.75;5397969;33;34116;-88
2023/08/01 13:16:43;;;;;;;2.22;0.98;;;;;;;31.57;32.79;99213.53;5398849;33;33846;-88
2023/08/01 13:19:46;;;;;;;7.47;1.77;;;;;;;31.68;32.59;99208.31;5387577;33;33536;-88
2023/08/01 13:22:50;;;;;;;3.67;2.12;;;;;;;31.46;34.48;99203.19;5401217;33;33755;-85
2023/08/01 13:25:53;;;;;;;2.55;1.35;;;;;;;31.21;34.17;99202.28;5397311;33;34625;-84
2023/08/01 13:28:56;;;;;;;3.30;1.33;;;;;;;31.02;33.82;99205.63;5396600;33;33628;-85
2023/08/01 13:31:59;;;;;;;1.27;1.10;;;;;;;30.63;33.99;99200.25;5384273;33;33350;-85
2023/08/01 13:35:02;;;;;;;5.53;1.77;;;;;;;30.54;34.13;99196.75;5384819;33;33781;-85
2023/08/01 13:38:07;;;;;;;6.68;1.30;;;;;;;30.46;35.01;99195.66;5397365;33;33616;-85
2023/08/01 13:41:09;;;;;;;1.98;1.40;;;;;;;30.82;32.50;99182.28;5396105;33;33615;-84
2023/08/01 13:44:12;;;;;;;4.62;1.62;;;;;;;32.28;31.00;99180.75;5396210;33;33843;-84
2023/08/01 13:47:15;;;;;;;3.00;1.50;;;;;;;33.14;30.51;99169.28;5397407;32;33902;-83
2023/08/01 13:50:18;;;;;;;1.67;1.17;;;;;;;33.09;30.73;99169.56;5397451;32;33784;-84
2023/08/01 13:53:21;;;;;;;2.53;1.52;;;;;;;33.57;29.16;99179.56;5396232;33;33349;-83
2023/08/01 13:56:24;;;;;;;2.90;1.30;;;;;;;33.61;29.28;99174.06;5396245;33;33900;-84
2023/08/01 13:59:27;;;;;;;3.25;1.42;;;;;;;34.66;28.36;99166.84;5395830;33;33427;-84
2023/08/01 14:02:30;;;;;;;4.07;1.35;;;;;;;35.69;26.92;99161.53;5397625;33;34053;-83
2023/08/01 14:05:33;;;;;;;2.80;1.33;;;;;;;35.26;26.60;99156.00;5396820;33;34595;-84
2023/08/01 14:08:37;;;;;;;1.75;1.50;;;;;;;35.53;26.44;99167.25;5396551;32;33830;-84
2023/08/01 14:11:40;;;;;;;3.60;1.77;;;;;;;34.15;28.04;99159.41;5397540;33;34314;-84
2023/08/01 14:14:43;;;;;;;2.78;1.40;;;;;;;33.51;28.58;99164.28;5395538;32;34653;-84
2023/08/01 14:17:46;;;;;;;2.75;1.30;;;;;;;33.58;28.75;99153.28;5397417;33;33624;-84
2023/08/01 14:20:49;;;;;;;1.65;1.40;;;;;;;34.20;28.28;99153.53;5383565;33;35010;-84
2023/08/01 14:23:52;;;;;;;1.65;1.23;;;;;;;33.35;28.91;99143.94;5395600;33;33802;-84
2023/08/01 14:26:54;;;;;;;3.22;1.48;;;;;;;32.86;30.28;99138.66;5396696;32;33543;-84
2023/08/01 14:29:57;;;;;;;3.10;1.62;;;;;;;32.71;29.58;99124.31;5371814;33;33622;-84
2023/08/01 14:33:05;;;;;;;2.00;1.60;;;;;;;32.65;30.20;99134.09;5383943;33;33805;-84
2023/08/01 14:36:09;;;;;;;2.65;1.48;;;;;;;32.21;30.87;99128.47;5396641;33;33992;-84
2023/08/01 14:39:12;;;;;;;3.45;1.65;;;;;;;32.40;30.71;99115.84;5383523;33;34015;-84
2023/08/01 14:42:24;;;;;;;2.30;1.42;;;;;;;32.35;30.81;99122.47;5395815;32;34991;-84
2023/08/01 14:45:27;;;;;;;4.75;1.52;;;;;;;31.73;31.56;99112.62;5383626;33;34249;-84
2023/08/01 14:48:30;;;;;;;1.60;1.50;;;;;;;31.79;30.71;99105.66;5394874;32;32788;-84
2023/08/01 14:51:33;;;;;;;1.83;1.50;;;;;;;31.60;30.82;99103.50;5371744;33;34342;-85
2023/08/01 14:54:37;;;;;;;2.20;1.27;;;;;;;31.79;30.70;99105.66;5385479;33;33434;-84
2023/08/01 14:57:43;;;;;;;2.85;1.45;;;;;;;31.49;30.66;99094.81;5365393;33;33328;-84
2023/08/01 15:00:46;;;;;;;3.90;1.73;;;;;;;31.09;31.45;99089.09;5364875;33;34382;-84
2023/08/01 15:03:49;;;;;;;2.35;1.25;;;;;;;31.15;31.88;99090.47;5376791;33;33424;-84
2023/08/01 15:06:52;;;;;;;3.15;1.52;;;;;;;31.05;32.33;99096.50;5371873;33;170919;-85
2023/08/01 15:09:55;;;;;;;3.47;1.30;;;;;;;30.73;32.79;99096.19;5365273;33;33570;-84
2023/08/01 15:12:58;;;;;;;2.08;1.20;;;;;;;30.31;33.79;99092.72;5377479;33;33946;-84
2023/08/01 15:16:02;;;;;;;3.33;1.83;;;;;;;30.36;33.90;99098.03;5364962;33;33587;-84
2023/08/01 15:19:05;;;;;;;2.12;1.17;;;;;;;30.17;34.20;99096.56;5378921;33;33499;-84
2023/08/01 15:22:07;;;;;;;1.40;1.15;;;;;;;29.94;35.36;99087.75;5375884;33;34583;-83
2023/08/01 15:25:11;;;;;;;2.17;1.30;;;;;;;29.82;35.13;99084.91;5376012;33;33941;-87
2023/08/01 15:28:14;;;;;;;2.22;1.25;;;;;;;29.79;35.58;99082.81;5380360;33;33891;-88
2023/08/01 15:31:17;;;;;;;3.15;1.37;;;;;;;29.66;36.28;99083.88;5378359;33;34592;-88
2023/08/01 15:34:20;;;;;;;4.07;1.70;;;;;;;29.49;37.41;99087.56;5376910;33;34578;-84
2023/08/01 15:37:23;;;;;;;3.72;1.65;;;;;;;29.33;37.27;99090.09;5376914;33;33518;-84
2023/08/01 15:40:26;;;;;;;1.48;1.33;;;;;;;29.21;37.84;99088.03;5377643;33;33638;-84
2023/08/01 15:43:30;;;;;;;1.85;1.40;;;;;;;29.10;37.68;99097.84;5353483;33;34925;-85
2023/08/01 15:46:33;;;;;;;7.95;2.25;;;;;;;28.93;38.63;99126.44;5365351;33;34620;-85
2023/08/01 15:49:36;;;;;;;4.75;2.10;;;;;;;28.36;46.35;99129.41;5365168;33;33623;-86
2023/08/01 15:52:39;;;;;;;4.55;2.22;;;;;;;27.65;49.00;99122.19;5364692;33;33235;-85
